createdAt,value
2022-08-27T00:04:55.987Z,25.96
2022-08-27T00:09:57.493Z,25.96
2022-08-27T00:15:00.439Z,25.94
2022-08-27T00:20:02.339Z,25.97
2022-08-27T00:25:04.721Z,25.95
2022-08-27T00:30:07.652Z,25.95
2022-08-27T00:35:09.262Z,25.97
2022-08-27T00:40:13.738Z,26.01
2022-08-27T00:45:16.671Z,26.01
2022-08-27T00:50:28.882Z,26.03
2022-08-27T00:55:33.387Z,25.96
2022-08-27T01:00:36.980Z,25.94
2022-08-27T01:05:38.590Z,25.95
2022-08-27T01:10:40.253Z,25.95
2022-08-27T01:15:41.784Z,25.95
2022-08-27T01:20:55.507Z,25.95
2022-08-27T01:25:57.447Z,25.94
2022-08-27T01:30:58.954Z,25.94
2022-08-27T01:36:00.543Z,25.96
2022-08-27T01:41:02.106Z,25.97
2022-08-27T01:46:03.618Z,25.92
2022-08-27T01:51:05.163Z,25.95
2022-08-27T01:56:06.731Z,25.98
2022-08-27T02:01:10.023Z,25.96
2022-08-27T02:06:11.676Z,25.93
2022-08-27T02:11:13.178Z,25.99
2022-08-27T02:16:14.728Z,25.91
2022-08-27T02:21:17.906Z,25.97
2022-08-27T02:26:19.395Z,25.97
2022-08-27T02:31:21.347Z,25.98
2022-08-27T02:36:22.907Z,26.00
2022-08-27T02:41:24.587Z,25.97
2022-08-27T02:46:26.799Z,25.94
2022-08-27T02:51:28.370Z,25.86
2022-08-27T02:56:29.915Z,25.91
2022-08-27T03:01:31.512Z,25.99
2022-08-27T03:06:33.095Z,25.93
2022-08-27T03:11:34.684Z,25.98
2022-08-27T03:16:36.942Z,25.97
2022-08-27T03:21:38.463Z,25.98
2022-08-27T03:26:40.006Z,25.89
2022-08-27T03:31:41.554Z,25.88
2022-08-27T03:36:43.663Z,25.92
2022-08-27T03:41:55.141Z,25.94
2022-08-27T03:46:57.233Z,25.88
2022-08-27T03:51:58.836Z,25.88
2022-08-27T03:57:00.354Z,25.92
2022-08-27T04:02:01.954Z,25.87
2022-08-27T04:07:03.678Z,25.89
2022-08-27T04:12:05.718Z,25.94
2022-08-27T04:17:07.232Z,25.93
2022-08-27T04:22:08.803Z,25.88
2022-08-27T04:27:11.311Z,25.92
2022-08-27T04:32:12.879Z,25.92
2022-08-27T04:37:14.374Z,25.89
2022-08-27T04:42:19.331Z,25.93
2022-08-27T04:47:20.836Z,25.92
2022-08-27T04:52:22.331Z,25.90
2022-08-27T04:57:23.836Z,25.91
2022-08-27T05:02:27.413Z,25.80
2022-08-27T05:07:28.914Z,25.84
2022-08-27T05:12:30.419Z,25.94
2022-08-27T05:17:32.719Z,25.76
2022-08-27T05:22:34.212Z,25.88
2022-08-27T05:27:36.319Z,25.91
2022-08-27T05:32:37.827Z,25.94
2022-08-27T05:37:39.343Z,25.94
2022-08-27T05:42:40.848Z,25.93
2022-08-27T05:47:44.829Z,25.87
2022-08-27T05:52:46.506Z,25.90
2022-08-27T05:57:48.017Z,25.80
2022-08-27T06:02:49.611Z,25.87
2022-08-27T06:07:51.174Z,25.78
2022-08-27T06:12:56.715Z,25.63
2022-08-27T06:17:58.639Z,25.58
2022-08-27T06:23:00.726Z,25.55
2022-08-27T06:28:02.792Z,25.60
2022-08-27T06:33:04.356Z,25.50
2022-08-27T06:38:05.859Z,25.63
2022-08-27T06:43:07.384Z,25.40
2022-08-27T06:48:08.891Z,25.53
2022-08-27T06:53:10.537Z,25.52
2022-08-27T06:58:12.557Z,25.40
2022-08-27T07:03:14.662Z,25.40
2022-08-27T07:08:16.164Z,25.37
2022-08-27T07:13:17.681Z,25.40
2022-08-27T07:18:20.260Z,25.33
2022-08-27T07:23:28.854Z,25.33
2022-08-27T07:28:30.355Z,25.39
2022-08-27T07:33:31.891Z,25.51
2022-08-27T07:38:34.206Z,25.48
2022-08-27T07:43:56.223Z,25.52
2022-08-27T07:48:58.123Z,25.35
2022-08-27T07:53:59.790Z,25.31
2022-08-27T07:59:01.320Z,25.36
2022-08-27T08:04:02.923Z,25.51
2022-08-27T08:09:05.652Z,25.39
2022-08-27T08:14:07.186Z,25.53
2022-08-27T08:19:09.306Z,25.53
2022-08-27T08:24:10.815Z,25.50
2022-08-27T08:29:17.681Z,25.38
2022-08-27T08:34:19.976Z,25.37
2022-08-27T08:39:21.896Z,25.35
2022-08-27T08:44:32.001Z,25.46
2022-08-27T08:50:04.907Z,25.54
2022-08-27T08:55:40.102Z,25.36
2022-08-27T09:00:42.823Z,25.51
2022-08-27T09:05:48.006Z,25.61
2022-08-27T09:10:52.435Z,25.35
2022-08-27T09:15:56.744Z,25.45
2022-08-27T09:21:04.916Z,25.51
2022-08-27T09:26:18.931Z,25.52
2022-08-27T09:31:20.761Z,25.43
2022-08-27T09:36:23.915Z,25.53
2022-08-27T09:41:28.321Z,25.52
2022-08-27T09:46:29.891Z,25.48
2022-08-27T09:51:31.413Z,25.33
2022-08-27T09:56:39.943Z,25.45
2022-08-27T10:01:53.319Z,25.37
2022-08-27T10:06:54.843Z,25.47
2022-08-27T10:12:25.054Z,25.50
2022-08-27T10:17:36.194Z,25.42
2022-08-27T10:22:47.842Z,25.47
2022-08-27T10:28:14.657Z,25.50
2022-08-27T10:33:23.656Z,25.52
2022-08-27T10:38:42.457Z,25.57
2022-08-27T10:44:05.483Z,25.64
2022-08-27T10:49:51.301Z,25.66
2022-08-27T10:55:01.080Z,25.49
2022-08-27T11:00:10.823Z,25.38
2022-08-27T11:05:19.682Z,25.48
2022-08-27T11:10:31.190Z,25.37
2022-08-27T11:15:38.271Z,25.56
2022-08-27T11:20:43.651Z,25.48
2022-08-27T11:25:53.299Z,25.52
2022-08-27T11:31:03.176Z,25.48
2022-08-27T11:36:23.293Z,25.40
2022-08-27T11:41:45.403Z,25.49
2022-08-27T11:46:49.050Z,25.47
2022-08-27T11:52:03.052Z,25.57
2022-08-27T11:57:04.547Z,25.63
2022-08-27T12:02:17.875Z,25.63
2022-08-27T12:07:21.693Z,25.70
2022-08-27T12:12:41.448Z,25.61
2022-08-27T12:18:01.059Z,25.74
2022-08-27T12:23:42.703Z,25.66
2022-08-27T12:28:44.211Z,25.73
2022-08-27T12:33:46.762Z,25.75
2022-08-27T12:38:56.125Z,25.67
2022-08-27T12:44:08.544Z,25.70
2022-08-27T12:49:38.086Z,25.82
2022-08-27T12:54:43.632Z,25.74
2022-08-27T12:59:44.987Z,25.77
2022-08-27T13:04:47.962Z,25.84
2022-08-27T13:09:49.471Z,25.69
2022-08-27T13:14:57.091Z,25.85
2022-08-27T13:19:59.867Z,25.82
2022-08-27T13:25:01.423Z,25.77
2022-08-27T13:30:06.547Z,25.72
2022-08-27T13:35:08.064Z,25.83
2022-08-27T13:40:10.411Z,25.78
2022-08-27T13:45:11.980Z,25.79
2022-08-27T13:50:26.979Z,25.79
2022-08-27T13:55:28.508Z,25.83
2022-08-27T14:00:32.106Z,25.78
2022-08-27T14:05:36.791Z,25.70
2022-08-27T14:10:39.630Z,25.63
2022-08-27T14:15:43.367Z,25.84
2022-08-27T14:20:44.933Z,25.89
2022-08-27T14:25:46.727Z,25.96
2022-08-27T14:30:52.041Z,25.95
2022-08-27T14:35:55.066Z,25.95
2022-08-27T14:40:57.666Z,25.88
2022-08-27T14:45:59.215Z,25.84
2022-08-27T14:51:02.803Z,25.85
2022-08-27T14:56:04.495Z,25.93
2022-08-27T15:01:06.003Z,25.89
2022-08-27T15:06:07.531Z,25.90
2022-08-27T15:11:16.967Z,25.88
2022-08-27T15:16:32.753Z,25.93
2022-08-27T15:21:35.427Z,25.91
2022-08-27T15:26:37.008Z,25.82
2022-08-27T15:31:38.914Z,25.89
2022-08-27T15:36:40.736Z,25.93
2022-08-27T15:42:11.433Z,25.85
2022-08-27T15:47:04.270Z,25.90
2022-08-27T15:52:05.763Z,25.91
2022-08-27T15:57:07.195Z,25.90
2022-08-27T16:02:14.475Z,25.87
2022-08-27T16:07:16.341Z,25.89
2022-08-27T16:12:27.493Z,25.88
2022-08-27T16:17:29.125Z,25.89
2022-08-27T16:22:30.525Z,25.93
2022-08-27T16:27:32.609Z,25.93
2022-08-27T16:32:34.030Z,25.93
2022-08-27T16:37:35.482Z,25.89
2022-08-27T16:42:38.637Z,25.90
2022-08-27T16:48:00.016Z,25.88
2022-08-27T16:53:22.528Z,25.84
2022-08-27T16:58:25.365Z,25.82
2022-08-27T17:03:26.857Z,25.87
2022-08-27T17:08:30.179Z,25.80
2022-08-27T17:13:34.301Z,25.86
2022-08-27T17:18:35.833Z,25.88
2022-08-27T17:23:45.500Z,25.87
2022-08-27T17:28:47.006Z,25.90
2022-08-27T17:33:52.232Z,25.83
2022-08-27T17:38:53.842Z,25.72
2022-08-27T17:43:57.686Z,25.83
2022-08-27T17:48:59.566Z,25.73
2022-08-27T17:54:01.645Z,25.83
2022-08-27T17:59:03.148Z,25.91
2022-08-27T18:04:06.001Z,25.69
2022-08-27T18:09:07.476Z,25.81
2022-08-27T18:14:09.189Z,25.75
2022-08-27T18:19:10.606Z,25.72
2022-08-27T18:24:12.746Z,25.78
2022-08-27T18:29:14.210Z,25.68
2022-08-27T18:34:20.547Z,25.66
2022-08-27T18:39:25.814Z,25.65
2022-08-27T18:44:27.511Z,25.57
2022-08-27T18:49:28.937Z,25.60
2022-08-27T18:54:30.361Z,25.59
2022-08-27T18:59:32.180Z,25.42
2022-08-27T19:04:33.620Z,25.51
2022-08-27T19:09:35.105Z,25.48
2022-08-27T19:14:36.513Z,25.44
2022-08-27T19:19:38.432Z,25.32
2022-08-27T19:24:40.632Z,25.39
2022-08-27T19:29:42.076Z,25.51
2022-08-27T19:34:43.492Z,25.45
2022-08-27T19:39:45.381Z,25.51
2022-08-27T19:44:47.297Z,25.51
2022-08-27T19:49:49.635Z,25.42
2022-08-27T19:55:12.557Z,25.47
2022-08-27T20:00:13.363Z,25.38
2022-08-27T20:05:18.978Z,25.35
2022-08-27T20:10:23.272Z,25.45
2022-08-27T20:15:33.440Z,25.30
2022-08-27T20:20:35.900Z,25.42
2022-08-27T20:25:37.516Z,25.27
2022-08-27T20:30:39.953Z,25.34
2022-08-27T20:35:41.392Z,25.36
2022-08-27T20:40:42.901Z,25.28
2022-08-27T20:45:44.622Z,25.42
2022-08-27T20:50:46.232Z,25.49
2022-08-27T20:55:47.680Z,25.40
2022-08-27T21:00:51.151Z,25.49
2022-08-27T21:05:52.628Z,25.54
2022-08-27T21:10:56.628Z,25.39
2022-08-27T21:15:58.101Z,25.36
2022-08-27T21:21:00.043Z,25.31
2022-08-27T21:26:09.904Z,25.39
2022-08-27T21:31:11.402Z,25.36
2022-08-27T21:36:12.948Z,25.30
2022-08-27T21:41:14.348Z,25.14
2022-08-27T21:46:15.923Z,25.26
2022-08-27T21:51:21.141Z,25.16
2022-08-27T21:56:26.756Z,25.09
2022-08-27T22:01:28.300Z,25.15
2022-08-27T22:06:29.957Z,25.09
2022-08-27T22:11:31.357Z,25.03
2022-08-27T22:16:32.853Z,24.99
2022-08-27T22:21:34.369Z,25.00
2022-08-27T22:26:35.778Z,24.94
2022-08-27T22:31:37.546Z,24.92
2022-08-27T22:36:39.471Z,24.94
2022-08-27T22:41:41.812Z,24.89
2022-08-27T22:46:47.214Z,24.90
2022-08-27T22:51:51.405Z,24.95
2022-08-27T22:56:52.813Z,24.91
2022-08-27T23:01:55.173Z,24.87
2022-08-27T23:06:57.076Z,24.88
2022-08-27T23:11:58.864Z,24.83
2022-08-27T23:17:00.376Z,24.86
2022-08-27T23:22:01.837Z,24.89
2022-08-27T23:27:40.744Z,24.87
2022-08-27T23:32:46.439Z,24.86
2022-08-27T23:37:52.057Z,24.88
2022-08-27T23:42:53.472Z,24.83
2022-08-27T23:47:54.884Z,24.87
2022-08-27T23:52:56.320Z,24.83
2022-08-27T23:57:57.877Z,24.83
